Boyne City, MI (49712)

3:17 PM EST on December 06, 2016 (GMT -0500)
3.4 mi SSW of Boyne City | | Change Station

Elev 820 ft 45.17 °N, 85.04 °W | Updated 115 days ago

Mostly Cloudy
Mostly Cloudy
40 °F
Feels Like 34 °F
N
7
Wind Variable Wind from SSE
Gusts mph

Today
High -- | Low -- °F
--% Chance of Precip.
Yesterday
High -- | Low -- °F
Precip. -- in
Pressure 29.69 in
Visibility 10.0 miles
Clouds Clear
Windchill 34 °F
Dew Point 32 °F
Humidity 74%
Rainfall in
Snow Depth Not available.
8:04 AM 4:57 PM
Waxing Crescent, 44% visible
METAR KCVX 062014Z AUTO 13010G17KT 10SM CLR 06/M01 A2969 RMK AO2 T00581009
Pressure 29.69 in
Visibility 10.0 miles
Clouds Clear
Windchill 34 °F
Dew Point 32 °F
Humidity 74%
Rainfall in
Snow Depth Not available.
8:04 AM 4:57 PM
Waxing Crescent, 44% visible
METAR KCVX 062014Z AUTO 13010G17KT 10SM CLR 06/M01 A2969 RMK AO2 T00581009

10-Day Weather Forecast

Almanac

Astronomy

Dec. 06, 2016 Rise Set
Actual Time
Civil Twilight
Nautical Twilight
Astronomical Twilight
Moon
Length of Visible Light
Length of Day
Tomorrow will be .
, % of the Moon is Illuminated

Today's Extremes

State Highs State Lows

Community

WunderPhotos

Upload Photos

1,956,022 photos uploaded!

WunderBlog® & News

Nearby

Air Quality

  Air Quality AQ Index Pollutant
Not available.

Snow Depth

Station Depth Elevation

Earthquake Activity

City Distance Mag. Time & Date
Minimum magnitude displayed is 2.5.

Coastal Water Temperatures

Place Temperature

Stations

Nearby Weather Stations

Station Location Temp. Windchill Dew Point Humidity Wind Precip. Elev Updated Type
                   

Watches & Warnings

There are currently no watches in effect.